Time;durP1;ratioP1;P1;durP2;ratioP2;P2;SDS_P1;SDS_P2;PMS_P1;PMS_P2;Temp;Humidity;BMP_temperature;BMP_pressure;BME280_temperature;BME280_humidity;BME280_pressure;Samples;Min_cycle;Max_cycle;Signal;HPM_P1;HPM_P2
2023/03/29 00:07:12;;;;;;;5.22;3.80;;;6.00;99.90;;;;;;848918;23;20749;-94
2023/03/29 00:09:38;;;;;;;5.75;3.45;;;6.10;99.90;;;;;;4941015;29;20480;-94
2023/03/29 00:12:10;;;;;;;5.25;3.38;;;5.80;99.90;;;;;;4920060;29;20445;-94
2023/03/29 00:14:35;;;;;;;5.43;2.97;;;6.00;99.90;;;;;;4927057;29;20418;-94
2023/03/29 00:20:15;;;;;;;;;;;;;;;;;;;;;
2023/03/29 00:22:48;;;;;;;5.85;3.10;;;6.00;99.90;;;;;;4887960;28;20414;-93
2023/03/29 00:25:14;;;;;;;4.85;3.25;;;6.10;99.90;;;;;;4959069;28;20398;-94
2023/03/29 00:27:51;;;;;;;4.82;2.90;;;6.20;99.90;;;;;;4968577;28;20406;-95
2023/03/29 00:30:23;;;;;;;4.53;3.17;;;6.10;99.90;;;;;;5367063;23;20474;-95
2023/03/29 00:33:14;;;;;;;4.70;2.80;;;6.20;99.90;;;;;;4967346;28;20477;-95
2023/03/29 00:36:00;;;;;;;4.43;3.07;;;6.10;99.90;;;;;;4969845;28;20892;-95
2023/03/29 00:38:28;;;;;;;4.27;2.90;;;6.00;99.90;;;;;;4962719;28;20505;-95
2023/03/29 00:40:54;;;;;;;4.53;2.70;;;6.00;99.90;;;;;;5150462;23;20538;-94
2023/03/29 00:43:21;;;;;;;7.03;2.97;;;6.00;99.90;;;;;;4975337;28;20830;-94
2023/03/29 00:45:47;;;;;;;4.60;2.60;;;6.30;99.90;;;;;;4956884;28;21014;-95
2023/03/29 00:48:23;;;;;;;5.18;3.28;;;6.00;99.90;;;;;;4954295;28;20444;-94
2023/03/29 00:50:57;;;;;;;4.32;2.70;;;6.00;99.90;;;;;;4958816;28;20432;-95
2023/03/29 00:53:47;;;;;;;4.67;3.00;;;6.10;99.90;;;;;;4987683;28;20419;-93
2023/03/29 00:56:18;;;;;;;5.72;2.90;;;6.00;99.90;;;;;;4953931;28;20412;-94
2023/03/29 00:59:22;;;;;;;4.70;2.95;;;6.30;99.90;;;;;;4956379;28;20412;-95
2023/03/29 01:02:27;;;;;;;5.32;2.35;;;6.00;99.90;;;;;;4962535;28;20467;-95
2023/03/29 01:05:07;;;;;;;4.95;2.80;;;6.00;99.90;;;;;;4980102;28;20432;-94
2023/03/29 01:07:56;;;;;;;3.45;2.50;;;5.90;99.90;;;;;;4955364;28;20732;-93
2023/03/29 01:11:11;;;;;;;4.23;2.50;;;6.00;99.90;;;;;;4959530;28;20970;-94
2023/03/29 01:13:43;;;;;;;5.50;2.60;;;6.00;99.90;;;;;;4955908;28;20450;-95
2023/03/29 01:16:11;;;;;;;4.93;2.50;;;6.20;99.90;;;;;;4967537;28;20433;-95
2023/03/29 01:18:47;;;;;;;4.78;2.60;;;6.10;99.90;;;;;;4955708;28;20480;-95
2023/03/29 01:21:43;;;;;;;6.22;2.97;;;5.90;99.90;;;;;;4959360;28;20416;-95
2023/03/29 01:24:34;;;;;;;4.70;2.50;;;5.90;99.90;;;;;;4972545;28;20416;-96
2023/03/29 01:27:27;;;;;;;4.63;2.63;;;6.20;99.90;;;;;;4981608;28;20413;-95
2023/03/29 01:30:37;;;;;;;6.03;2.90;;;5.80;99.90;;;;;;4979297;28;20448;-95
2023/03/29 01:33:35;;;;;;;3.73;2.37;;;5.70;99.90;;;;;;4989540;28;20502;-96
2023/03/29 01:39:35;;;;;;;5.45;2.80;;;5.90;99.90;;;;;;4970788;28;20412;-96
2023/03/29 01:42:37;;;;;;;6.30;2.92;;;6.80;99.90;;;;;;4959444;28;20424;-95
2023/03/29 01:45:14;;;;;;;6.05;2.55;;;5.90;99.90;;;;;;4948028;28;20417;-94
2023/03/29 01:48:20;;;;;;;4.45;2.75;;;5.90;99.90;;;;;;4957807;28;20500;-95
2023/03/29 01:54:08;;;;;;;5.07;3.03;;;5.90;99.90;;;;;;4992455;28;20452;-94
2023/03/29 01:56:40;;;;;;;4.57;2.63;;;5.90;99.90;;;;;;4968093;28;20480;-95
2023/03/29 01:59:40;;;;;;;4.90;2.80;;;6.10;99.90;;;;;;4970555;28;20407;-95
2023/03/29 02:07:13;;;;;;;4.65;3.00;;;5.90;99.90;;;;;;4991356;28;20438;-95
2023/03/29 02:09:40;;;;;;;4.80;3.15;;;6.10;99.90;;;;;;4953910;28;20445;-95
2023/03/29 02:12:07;;;;;;;4.50;2.53;;;5.90;99.90;;;;;;4969756;28;20445;-95
2023/03/29 02:14:33;;;;;;;4.43;2.80;;;6.20;99.90;;;;;;4957500;28;20421;-93
2023/03/29 02:17:27;;;;;;;4.63;3.15;;;6.00;99.90;;;;;;4955831;28;20410;-94
2023/03/29 02:20:22;;;;;;;5.23;2.67;;;5.80;99.90;;;;;;4960216;28;20423;-95
2023/03/29 02:23:09;;;;;;;4.75;3.03;;;6.00;99.90;;;;;;4960212;28;20465;-95
2023/03/29 02:25:38;;;;;;;5.10;2.63;;;6.00;99.90;;;;;;4956515;28;20433;-96
2023/03/29 02:28:06;;;;;;;5.30;3.00;;;6.70;99.90;;;;;;4954101;28;20437;-95
2023/03/29 02:34:09;;;;;;;6.75;2.78;;;6.00;99.90;;;;;;5110070;23;20434;-96
2023/03/29 02:37:14;;;;;;;5.25;3.00;;;6.00;99.90;;;;;;4968658;28;20430;-95
2023/03/29 02:39:41;;;;;;;3.97;2.80;;;6.00;99.90;;;;;;4943906;28;20485;-94
2023/03/29 02:42:26;;;;;;;5.53;2.65;;;6.00;99.90;;;;;;5262325;23;20407;-95
2023/03/29 02:48:02;;;;;;;4.93;3.17;;;6.10;99.90;;;;;;5209947;23;20438;-95
2023/03/29 02:50:34;;;;;;;6.38;3.20;;;6.30;99.90;;;;;;4967952;28;20446;-94
2023/03/29 02:53:35;;;;;;;7.00;3.58;;;6.20;99.90;;;;;;4960082;28;20937;-95
2023/03/29 02:56:14;;;;;;;4.80;3.50;;;6.20;99.90;;;;;;4878566;29;20438;-96
2023/03/29 02:58:47;;;;;;;7.32;3.85;;;6.10;99.90;;;;;;4867155;28;20995;-95
2023/03/29 03:04:10;;;;;;;4.88;3.60;;;6.10;99.90;;;;;;5031098;23;20414;-95
2023/03/29 03:06:36;;;;;;;4.78;3.70;;;6.00;99.90;;;;;;4956890;28;20423;-94
2023/03/29 03:09:03;;;;;;;7.40;4.07;;;6.10;99.90;;;;;;4961533;28;20434;-95
2023/03/29 03:11:32;;;;;;;5.15;4.15;;;6.30;99.90;;;;;;4955351;28;20427;-94
2023/03/29 03:13:58;;;;;;;6.05;3.80;;;6.50;99.90;;;;;;5012646;23;20438;-95
2023/03/29 03:16:24;;;;;;;5.30;3.78;;;6.10;99.90;;;;;;4977216;28;20418;-95
2023/03/29 03:18:52;;;;;;;7.22;4.10;;;6.10;99.90;;;;;;4982360;28;20638;-95
2023/03/29 03:21:18;;;;;;;5.68;3.92;;;6.60;99.90;;;;;;4977389;28;20422;-95
2023/03/29 03:23:46;;;;;;;5.20;4.00;;;6.10;99.90;;;;;;4973271;28;20422;-94
2023/03/29 03:26:15;;;;;;;5.90;3.95;;;6.10;99.90;;;;;;4976228;28;20923;-94
2023/03/29 03:28:41;;;;;;;6.00;4.40;;;6.10;99.90;;;;;;4973898;28;20470;-94
2023/03/29 03:31:14;;;;;;;6.03;4.03;;;6.20;99.90;;;;;;4976850;28;20430;-96
2023/03/29 03:33:40;;;;;;;6.10;4.38;;;6.10;99.90;;;;;;4970511;28;20426;-94
2023/03/29 03:36:10;;;;;;;6.72;4.60;;;6.20;99.90;;;;;;4974652;28;20390;-95
2023/03/29 03:38:40;;;;;;;6.70;4.07;;;6.10;99.90;;;;;;4972230;28;20956;-95
2023/03/29 03:41:06;;;;;;;6.50;4.22;;;6.10;99.90;;;;;;4968898;28;20423;-94
2023/03/29 03:43:32;;;;;;;6.83;4.73;;;6.60;99.90;;;;;;4974933;28;20437;-95
2023/03/29 03:46:09;;;;;;;7.10;4.18;;;6.30;99.90;;;;;;4971754;28;20410;-96
2023/03/29 03:48:37;;;;;;;6.43;4.20;;;6.20;99.90;;;;;;4976324;28;20493;-95
2023/03/29 03:51:09;;;;;;;6.47;4.60;;;6.30;99.90;;;;;;4970681;28;20411;-93
2023/03/29 03:53:35;;;;;;;6.00;4.53;;;6.80;99.90;;;;;;4977013;28;20430;-95
2023/03/29 03:56:07;;;;;;;7.60;4.60;;;6.30;99.90;;;;;;4971263;28;20411;-94
2023/03/29 03:58:34;;;;;;;5.88;4.35;;;6.20;99.90;;;;;;4976869;28;21004;-95
2023/03/29 04:01:00;;;;;;;6.18;4.50;;;6.50;99.90;;;;;;4976688;28;20421;-95
2023/03/29 04:03:26;;;;;;;6.32;4.30;;;6.20;99.90;;;;;;4972142;28;20414;-95
2023/03/29 04:05:53;;;;;;;6.22;4.72;;;6.10;99.90;;;;;;4981481;28;20441;-95
2023/03/29 04:08:48;;;;;;;7.50;4.22;;;6.40;99.90;;;;;;4978516;28;20429;-95
2023/03/29 04:11:14;;;;;;;6.95;4.60;;;6.00;99.90;;;;;;4941430;28;20700;-95
2023/03/29 04:13:40;;;;;;;6.55;4.75;;;6.20;99.90;;;;;;4972468;28;20406;-96
2023/03/29 04:16:06;;;;;;;6.30;4.30;;;6.40;99.90;;;;;;4960535;28;20502;-94
2023/03/29 04:18:32;;;;;;;6.60;4.10;;;6.20;99.90;;;;;;4958273;28;20433;-95
2023/03/29 04:21:05;;;;;;;5.35;4.45;;;6.00;99.90;;;;;;4964750;28;20419;-95
2023/03/29 04:23:31;;;;;;;8.20;4.70;;;6.30;99.90;;;;;;4959115;28;20497;-94
2023/03/29 04:26:04;;;;;;;5.93;5.13;;;6.30;99.90;;;;;;4956674;28;20449;-96
2023/03/29 04:28:29;;;;;;;8.40;4.70;;;6.30;99.90;;;;;;4952749;28;20497;-95
2023/03/29 04:30:57;;;;;;;6.33;4.70;;;6.30;99.90;;;;;;4969132;28;20489;-96
2023/03/29 04:33:23;;;;;;;6.85;4.93;;;6.40;99.90;;;;;;4958997;28;20403;-96
2023/03/29 04:38:22;;;;;;;8.13;5.10;;;6.30;99.90;;;;;;4996204;28;20442;-95
2023/03/29 04:40:54;;;;;;;7.03;5.00;;;6.40;99.90;;;;;;4980190;23;20458;-96
2023/03/29 04:43:25;;;;;;;8.00;5.10;;;6.50;99.90;;;;;;5027000;23;21156;-96
2023/03/29 04:45:51;;;;;;;7.15;4.90;;;6.20;99.90;;;;;;4963612;28;21026;-95
2023/03/29 04:48:56;;;;;;;8.17;5.23;;;6.50;99.90;;;;;;4967713;28;20449;-95
2023/03/29 04:51:23;;;;;;;7.37;5.07;;;6.30;99.90;;;;;;4862882;29;20423;-94
2023/03/29 04:53:54;;;;;;;8.00;4.85;;;6.50;99.90;;;;;;4864301;29;20431;-96
2023/03/29 04:56:19;;;;;;;7.20;5.45;;;6.50;99.90;;;;;;4866934;29;20592;-95
2023/03/29 04:58:45;;;;;;;8.23;5.95;;;6.20;99.90;;;;;;4864370;29;21063;-96
2023/03/29 05:01:11;;;;;;;7.50;5.80;;;6.40;99.90;;;;;;4863852;29;20419;-95
2023/03/29 05:03:37;;;;;;;7.40;5.70;;;6.30;99.90;;;;;;4946827;28;20407;-96
2023/03/29 05:06:08;;;;;;;8.43;5.63;;;6.60;99.90;;;;;;4954702;28;20568;-96
2023/03/29 05:08:38;;;;;;;7.03;5.53;;;6.40;99.90;;;;;;4956513;28;20462;-95
2023/03/29 05:11:10;;;;;;;7.25;5.75;;;6.50;99.90;;;;;;4956506;28;20501;-96
2023/03/29 05:16:10;;;;;;;7.93;5.63;;;6.40;99.90;;;;;;4953364;28;20462;-94
2023/03/29 05:19:05;;;;;;;8.27;6.07;;;6.30;99.90;;;;;;4920388;29;20531;-94
2023/03/29 05:21:51;;;;;;;8.00;5.97;;;6.40;99.90;;;;;;4924715;29;20468;-95
2023/03/29 05:24:20;;;;;;;7.72;5.97;;;6.40;99.90;;;;;;4918717;29;20433;-94
2023/03/29 05:26:50;;;;;;;8.35;6.40;;;6.40;99.90;;;;;;4922196;29;20421;-95
2023/03/29 05:29:16;;;;;;;10.80;6.97;;;6.70;99.90;;;;;;4917978;29;20778;-95
2023/03/29 05:31:42;;;;;;;8.32;6.88;;;6.40;99.90;;;;;;5137816;23;20460;-94
2023/03/29 05:34:23;;;;;;;9.27;7.05;;;6.50;99.90;;;;;;4950655;28;20454;-96
2023/03/29 05:36:49;;;;;;;9.00;7.40;;;6.60;99.90;;;;;;4955793;28;20416;-94
2023/03/29 05:39:15;;;;;;;9.40;7.50;;;6.60;99.90;;;;;;4955946;28;20412;-93
2023/03/29 05:41:50;;;;;;;10.05;7.95;;;6.60;99.90;;;;;;4954915;28;20835;-95
2023/03/29 05:44:15;;;;;;;9.13;7.97;;;6.50;99.90;;;;;;4955492;28;20427;-95
2023/03/29 05:46:41;;;;;;;11.93;8.82;;;6.40;99.90;;;;;;4959094;28;20768;-95
2023/03/29 05:51:45;;;;;;;11.53;9.50;;;6.50;99.90;;;;;;5026972;23;20436;-95
2023/03/29 05:54:14;;;;;;;15.02;10.93;;;6.50;99.90;;;;;;4955942;28;20551;-94
2023/03/29 05:56:40;;;;;;;13.33;10.73;;;6.60;99.90;;;;;;4956508;28;20491;-93
2023/03/29 05:59:16;;;;;;;15.10;12.07;;;6.50;99.90;;;;;;4961767;28;20434;-95
2023/03/29 06:01:45;;;;;;;17.73;13.10;;;6.60;99.90;;;;;;5004670;23;20860;-94
2023/03/29 06:04:12;;;;;;;19.40;13.97;;;7.00;99.90;;;;;;4955673;28;20469;-95
2023/03/29 06:06:39;;;;;;;16.90;13.77;;;6.60;99.90;;;;;;4957557;28;20415;-93
2023/03/29 06:09:31;;;;;;;17.95;12.65;;;6.40;99.90;;;;;;4962544;28;20440;-95
2023/03/29 06:12:11;;;;;;;16.95;12.98;;;6.50;99.90;;;;;;4973051;23;20436;-96
2023/03/29 06:14:57;;;;;;;16.52;13.43;;;6.80;99.90;;;;;;4936327;28;20453;-94
2023/03/29 06:17:29;;;;;;;17.50;13.55;;;6.40;99.90;;;;;;4955364;28;20420;-96
2023/03/29 06:19:57;;;;;;;15.20;12.30;;;6.50;99.90;;;;;;5145278;23;20526;-95
2023/03/29 06:22:23;;;;;;;17.63;12.97;;;6.80;99.90;;;;;;4950599;28;20863;-95
2023/03/29 06:24:49;;;;;;;19.00;14.20;;;6.50;99.90;;;;;;4956518;28;20404;-94
2023/03/29 06:27:14;;;;;;;16.58;12.82;;;6.60;99.90;;;;;;4950005;28;20428;-94
2023/03/29 06:29:40;;;;;;;17.02;13.43;;;6.60;99.90;;;;;;4951779;28;20519;-92
2023/03/29 06:32:06;;;;;;;15.03;11.90;;;6.60;99.90;;;;;;4948911;28;20445;-94
2023/03/29 06:34:33;;;;;;;13.23;11.53;;;6.80;99.90;;;;;;4952720;28;20427;-93
2023/03/29 06:36:59;;;;;;;15.27;11.40;;;6.70;99.90;;;;;;4951705;28;20460;-94
2023/03/29 06:39:25;;;;;;;13.67;11.00;;;6.60;99.90;;;;;;4955901;28;20409;-94
2023/03/29 06:42:01;;;;;;;13.27;10.80;;;6.60;99.90;;;;;;4956157;28;20412;-95
2023/03/29 06:44:46;;;;;;;15.25;11.57;;;7.80;99.90;;;;;;4954721;28;20416;-94
2023/03/29 06:47:31;;;;;;;;;;;;;;;;;;;;;
2023/03/29 06:50:16;;;;;;;13.27;10.65;;;6.90;99.90;;;;;;4967790;28;20862;-93
2023/03/29 06:52:42;;;;;;;13.30;9.93;;;7.00;99.90;;;;;;4952873;28;20419;-93
2023/03/29 06:55:10;;;;;;;12.68;10.48;;;7.20;99.90;;;;;;4953197;28;20420;-94
2023/03/29 06:57:56;;;;;;;12.43;10.30;;;7.30;99.90;;;;;;4957431;28;20412;-94
2023/03/29 07:00:28;;;;;;;13.13;10.47;;;7.10;99.90;;;;;;4951069;28;20412;-96
2023/03/29 07:03:23;;;;;;;12.50;10.18;;;7.10;99.90;;;;;;4954659;28;20895;-94
2023/03/29 07:05:55;;;;;;;12.17;9.77;;;7.20;99.90;;;;;;4948522;28;20456;-95
2023/03/29 07:08:21;;;;;;;13.23;10.75;;;7.10;99.90;;;;;;4966623;23;20450;-94
2023/03/29 07:10:51;;;;;;;13.02;10.40;;;8.00;99.90;;;;;;4949004;28;20507;-94
2023/03/29 07:13:41;;;;;;;12.55;9.88;;;7.30;99.90;;;;;;4955588;28;20459;-95
2023/03/29 07:18:56;;;;;;;11.82;9.52;;;7.50;99.90;;;;;;4993076;23;20836;-95
2023/03/29 07:21:52;;;;;;;11.63;9.55;;;7.30;99.90;;;;;;4934599;28;20427;-95
2023/03/29 07:24:20;;;;;;;11.75;9.27;;;7.30;99.90;;;;;;4943404;28;20420;-95
2023/03/29 07:26:57;;;;;;;10.67;8.53;;;7.40;99.90;;;;;;4938307;28;20416;-95
2023/03/29 07:29:32;;;;;;;10.48;8.20;;;7.50;99.90;;;;;;4948517;28;20456;-96
2023/03/29 07:32:00;;;;;;;11.73;7.80;;;7.70;99.90;;;;;;4938674;28;20428;-94
2023/03/29 07:34:35;;;;;;;12.98;9.05;;;8.10;99.90;;;;;;4938471;28;20450;-95
2023/03/29 07:37:05;;;;;;;12.63;9.00;;;7.60;99.90;;;;;;4938088;28;20915;-96
2023/03/29 07:39:35;;;;;;;11.82;8.55;;;7.70;99.90;;;;;;5041465;23;20974;-96
2023/03/29 07:42:15;;;;;;;11.07;8.60;;;7.90;99.90;;;;;;4952407;28;20445;-94
2023/03/29 07:44:41;;;;;;;12.70;8.83;;;7.80;99.90;;;;;;4953323;28;20480;-93
2023/03/29 07:47:11;;;;;;;10.97;8.40;;;7.50;99.90;;;;;;4992535;23;20531;-96
2023/03/29 07:49:37;;;;;;;11.27;8.10;;;7.60;99.90;;;;;;4973760;23;20441;-94
2023/03/29 07:52:28;;;;;;;11.98;8.60;;;7.90;99.90;;;;;;4936216;29;20425;-96
2023/03/29 07:54:55;;;;;;;10.32;8.52;;;8.00;99.90;;;;;;4948456;29;21043;-94
2023/03/29 08:00:10;;;;;;;10.32;8.27;;;8.10;99.90;;;;;;5066157;23;20440;-95
2023/03/29 08:02:36;;;;;;;11.23;8.73;;;8.20;99.90;;;;;;4935554;28;20432;-93
2023/03/29 08:05:05;;;;;;;9.73;8.20;;;8.40;99.90;;;;;;4943190;28;20417;-95
2023/03/29 08:07:40;;;;;;;10.45;8.50;;;8.40;99.90;;;;;;4936495;28;20422;-95
2023/03/29 08:10:41;;;;;;;10.75;7.80;;;8.60;99.90;;;;;;4946412;28;20471;-96
2023/03/29 08:13:13;;;;;;;11.00;8.30;;;8.60;99.90;;;;;;4944426;28;20451;-96
2023/03/29 08:15:45;;;;;;;11.30;8.23;;;8.70;99.90;;;;;;4943484;28;20416;-94
2023/03/29 08:18:10;;;;;;;10.98;8.63;;;9.30;99.90;;;;;;4939938;28;20420;-93
2023/03/29 08:20:38;;;;;;;12.40;8.37;;;8.90;99.90;;;;;;4940073;28;20411;-94
2023/03/29 08:28:12;;;;;;;11.82;8.18;;;8.90;99.90;;;;;;4970434;28;20444;-94
2023/03/29 08:30:38;;;;;;;12.63;7.95;;;9.00;99.90;;;;;;4938722;28;20436;-95
2023/03/29 08:33:03;;;;;;;10.57;8.50;;;9.00;99.90;;;;;;4938819;28;20404;-94
2023/03/29 08:35:32;;;;;;;10.32;7.47;;;9.50;99.90;;;;;;4941184;28;20416;-96
2023/03/29 08:37:57;;;;;;;11.03;8.10;;;8.80;99.90;;;;;;4937035;28;20430;-93
2023/03/29 08:40:51;;;;;;;10.23;7.53;;;10.10;99.90;;;;;;4940682;28;20412;-94
2023/03/29 08:43:38;;;;;;;10.98;8.13;;;9.50;99.90;;;;;;4946359;28;20459;-94
2023/03/29 08:46:22;;;;;;;11.13;8.13;;;9.40;99.90;;;;;;4939872;28;20420;-95
2023/03/29 08:49:02;;;;;;;10.95;8.38;;;9.50;99.90;;;;;;4936470;28;20499;-93
2023/03/29 08:51:44;;;;;;;10.95;8.85;;;9.50;99.90;;;;;;4943531;28;20471;-93
2023/03/29 08:54:28;;;;;;;10.73;8.27;;;9.70;99.90;;;;;;4938860;28;20423;-95
2023/03/29 08:57:01;;;;;;;12.48;9.20;;;9.60;99.90;;;;;;4935776;28;20759;-93
2023/03/29 08:59:38;;;;;;;10.02;8.50;;;9.80;99.90;;;;;;4942520;28;20400;-94
2023/03/29 09:02:14;;;;;;;12.18;8.18;;;9.90;99.90;;;;;;4940520;28;20411;-93
2023/03/29 09:04:43;;;;;;;12.38;8.90;;;9.80;99.90;;;;;;4943089;28;20970;-95
2023/03/29 09:07:13;;;;;;;13.93;8.82;;;10.20;99.90;;;;;;4936999;28;20412;-94
2023/03/29 09:09:44;;;;;;;11.77;8.60;;;10.20;99.90;;;;;;4944820;28;20470;-95
2023/03/29 09:21:22;;;;;;;11.88;8.43;;;10.10;99.90;;;;;;5008153;28;20433;-94
2023/03/29 09:26:46;;;;;;;12.27;8.25;;;10.40;99.90;;;;;;5065593;23;20492;-95
2023/03/29 09:29:53;;;;;;;12.20;8.63;;;10.30;99.90;;;;;;4936036;28;20432;-93
2023/03/29 09:32:47;;;;;;;11.60;8.20;;;10.50;99.90;;;;;;4936564;28;20424;-96
2023/03/29 09:35:20;;;;;;;9.93;8.20;;;10.50;99.90;;;;;;4941293;28;20432;-95
2023/03/29 09:37:49;;;;;;;12.60;8.75;;;10.50;99.90;;;;;;4936924;28;20426;-95
2023/03/29 09:40:43;;;;;;;12.48;8.77;;;10.80;99.90;;;;;;4937656;28;20412;-95
2023/03/29 09:43:12;;;;;;;12.73;9.50;;;11.00;99.90;;;;;;4940740;28;20416;-94
2023/03/29 09:45:39;;;;;;;14.60;9.13;;;10.80;99.90;;;;;;4943942;28;20443;-94
2023/03/29 09:48:36;;;;;;;12.47;9.80;;;10.80;99.90;;;;;;4937566;28;20428;-95
2023/03/29 09:51:18;;;;;;;13.02;10.07;;;10.80;99.90;;;;;;4938559;28;20444;-96
2023/03/29 09:53:44;;;;;;;13.73;9.55;;;11.00;99.90;;;;;;4942202;28;20471;-94
2023/03/29 09:56:09;;;;;;;13.10;9.57;;;10.90;99.90;;;;;;4961102;28;20427;-94
2023/03/29 10:02:30;;;;;;;14.45;10.25;;;10.80;99.90;;;;;;4835121;29;20480;-93
2023/03/29 10:05:04;;;;;;;17.23;10.80;;;11.10;99.90;;;;;;4840911;29;20434;-95
2023/03/29 10:07:56;;;;;;;14.18;10.80;;;11.00;99.90;;;;;;4865161;29;20434;-94
2023/03/29 10:10:28;;;;;;;15.13;10.68;;;10.90;99.90;;;;;;4876240;28;20866;-93
2023/03/29 10:13:02;;;;;;;14.60;10.55;;;11.60;99.90;;;;;;5059815;23;20434;-94
2023/03/29 10:15:29;;;;;;;14.30;10.35;;;10.90;99.90;;;;;;4981344;28;20426;-94
2023/03/29 10:18:13;;;;;;;16.15;11.75;;;10.90;99.90;;;;;;4971913;28;20410;-96
2023/03/29 10:20:39;;;;;;;14.40;10.70;;;11.00;99.90;;;;;;4986402;28;20426;-94
2023/03/29 10:23:20;;;;;;;17.40;11.87;;;10.90;99.90;;;;;;4984776;28;20414;-95
2023/03/29 10:25:46;;;;;;;14.43;11.07;;;11.00;99.90;;;;;;4976125;28;20421;-93
2023/03/29 10:28:17;;;;;;;17.50;11.95;;;11.10;99.90;;;;;;4980285;28;20399;-95
2023/03/29 10:30:51;;;;;;;15.70;11.32;;;11.40;99.90;;;;;;4970602;28;21034;-94
2023/03/29 10:33:40;;;;;;;16.02;11.88;;;11.70;99.90;;;;;;4984204;28;20420;-95
2023/03/29 10:36:06;;;;;;;18.30;12.37;;;11.80;99.90;;;;;;4975491;23;20452;-95
2023/03/29 10:39:37;;;;;;;18.80;13.70;;;11.90;99.90;;;;;;4959608;28;20412;-95
2023/03/29 10:42:03;;;;;;;16.75;13.05;;;12.10;99.90;;;;;;4958380;28;20421;-94
2023/03/29 10:44:33;;;;;;;18.57;13.57;;;12.20;99.90;;;;;;4961005;28;20409;-95
2023/03/29 10:47:15;;;;;;;19.77;15.02;;;12.20;99.90;;;;;;5110404;23;20445;-94
2023/03/29 10:49:45;;;;;;;19.27;14.57;;;12.40;99.90;;;;;;4979259;28;20442;-94
2023/03/29 10:52:13;;;;;;;18.45;14.52;;;12.80;99.90;;;;;;4971660;28;20527;-92
2023/03/29 10:55:17;;;;;;;18.25;13.32;;;12.50;99.90;;;;;;4976025;28;20454;-96
2023/03/29 10:58:15;;;;;;;21.60;15.00;;;12.60;99.90;;;;;;4988204;28;20422;-96
2023/03/29 11:01:22;;;;;;;18.20;15.30;;;12.50;99.90;;;;;;4907639;29;20419;-95
2023/03/29 11:04:40;;;;;;;19.85;15.23;;;12.50;99.90;;;;;;4907185;29;20419;-95
2023/03/29 11:07:12;;;;;;;19.38;15.38;;;12.50;99.90;;;;;;4824104;29;20437;-96
2023/03/29 11:10:26;;;;;;;22.70;15.82;;;12.40;99.90;;;;;;4901846;29;20534;-93
2023/03/29 11:12:56;;;;;;;20.60;16.73;;;12.40;99.90;;;;;;4975065;28;20406;-95
2023/03/29 11:15:44;;;;;;;21.45;16.38;;;12.50;99.90;;;;;;4975905;28;20505;-95
2023/03/29 11:18:47;;;;;;;21.48;17.75;;;12.50;99.90;;;;;;4977785;28;20415;-95
2023/03/29 11:24:04;;;;;;;22.23;17.90;;;12.50;99.90;;;;;;5069886;23;20418;-95
2023/03/29 11:26:46;;;;;;;22.30;18.45;;;12.50;99.90;;;;;;4957051;28;20414;-96
2023/03/29 11:30:13;;;;;;;23.48;17.63;;;12.60;99.90;;;;;;4964863;28;20492;-95
2023/03/29 11:33:13;;;;;;;20.92;17.50;;;12.90;99.90;;;;;;4972959;28;20421;-93
2023/03/29 11:42:06;;;;;;;19.35;17.17;;;13.10;99.90;;;;;;5010336;23;20441;-96
2023/03/29 11:44:35;;;;;;;21.50;17.30;;;13.20;99.90;;;;;;4964553;28;20418;-93
2023/03/29 11:47:09;;;;;;;24.02;17.83;;;13.60;99.90;;;;;;4962833;28;20454;-94
2023/03/29 11:50:14;;;;;;;22.57;17.30;;;13.50;99.90;;;;;;4976061;28;20422;-95
2023/03/29 11:53:32;;;;;;;21.77;17.60;;;13.50;99.90;;;;;;4967520;28;20431;-96
2023/03/29 11:56:06;;;;;;;23.92;18.20;;;13.40;99.90;;;;;;4957227;28;20410;-94
2023/03/29 11:58:36;;;;;;;22.77;17.77;;;13.40;99.90;;;;;;4962250;28;20421;-95
2023/03/29 12:01:10;;;;;;;21.67;18.05;;;13.40;99.90;;;;;;4967136;28;20397;-95
2023/03/29 12:03:58;;;;;;;25.63;18.17;;;13.80;99.90;;;;;;4968810;28;20414;-94
2023/03/29 12:06:58;;;;;;;22.63;18.07;;;13.60;99.90;;;;;;4966776;28;20414;-96
2023/03/29 12:09:52;;;;;;;22.17;17.65;;;13.70;99.90;;;;;;4964663;28;20429;-94
2023/03/29 12:19:07;;;;;;;22.43;18.27;;;13.70;99.90;;;;;;4976064;28;20918;-95
2023/03/29 12:21:41;;;;;;;23.33;18.27;;;14.30;99.90;;;;;;4945331;28;20427;-95
2023/03/29 12:24:11;;;;;;;23.35;19.80;;;13.90;99.90;;;;;;4939298;28;20831;-94
2023/03/29 12:27:11;;;;;;;22.87;18.63;;;13.90;99.90;;;;;;4941620;28;20953;-93
2023/03/29 12:30:05;;;;;;;22.83;18.13;;;13.70;99.90;;;;;;4945593;28;20502;-96
2023/03/29 12:33:09;;;;;;;22.08;18.67;;;13.70;99.90;;;;;;4945980;28;20552;-96
2023/03/29 12:36:03;;;;;;;23.08;18.17;;;13.60;99.90;;;;;;4948903;28;20455;-96
2023/03/29 12:38:29;;;;;;;24.45;19.00;;;13.50;99.90;;;;;;4941891;28;20439;-95
2023/03/29 12:40:58;;;;;;;23.63;20.00;;;13.40;99.90;;;;;;4947407;28;20428;-93
2023/03/29 12:43:58;;;;;;;23.92;19.33;;;13.40;99.90;;;;;;4943928;28;20769;-95
2023/03/29 12:46:26;;;;;;;23.40;19.67;;;13.30;99.90;;;;;;4945556;28;20424;-94
2023/03/29 12:49:03;;;;;;;23.70;20.05;;;13.40;99.90;;;;;;4935281;28;20416;-94
2023/03/29 12:51:31;;;;;;;20.90;18.70;;;13.30;99.90;;;;;;4942563;28;20415;-95
2023/03/29 12:54:15;;;;;;;22.33;19.45;;;13.60;99.90;;;;;;4936662;28;20750;-92
2023/03/29 12:57:38;;;;;;;20.93;18.70;;;13.40;99.90;;;;;;4955547;28;20785;-93
2023/03/29 13:00:20;;;;;;;20.73;18.55;;;13.50;99.90;;;;;;4940978;28;20459;-94
2023/03/29 13:03:18;;;;;;;21.30;18.80;;;13.40;99.90;;;;;;4935769;28;20775;-94
2023/03/29 13:06:23;;;;;;;19.77;17.75;;;13.50;99.90;;;;;;4945198;28;20519;-96
2023/03/29 13:08:58;;;;;;;19.90;17.83;;;13.50;99.90;;;;;;4962125;28;20923;-94
2023/03/29 13:11:28;;;;;;;21.00;18.55;;;13.50;99.90;;;;;;4953869;28;20419;-93
2023/03/29 13:14:25;;;;;;;20.33;18.25;;;13.70;99.90;;;;;;4949114;28;20477;-95
2023/03/29 13:17:11;;;;;;;19.38;17.38;;;13.50;99.90;;;;;;4947764;28;20456;-94
2023/03/29 13:22:52;;;;;;;20.17;17.73;;;13.50;99.90;;;;;;4988487;23;20467;-94
2023/03/29 13:26:10;;;;;;;20.58;18.48;;;13.50;99.90;;;;;;4938488;28;20451;-94
2023/03/29 13:28:54;;;;;;;20.02;17.85;;;13.70;99.90;;;;;;4945382;28;20433;-95
2023/03/29 13:32:26;;;;;;;21.08;18.98;;;14.40;99.90;;;;;;4937401;28;20455;-95
2023/03/29 13:35:14;;;;;;;19.70;17.60;;;13.90;99.90;;;;;;4887138;29;20420;-94
2023/03/29 13:38:04;;;;;;;21.00;18.85;;;14.10;99.90;;;;;;4923222;28;20816;-95
2023/03/29 13:41:03;;;;;;;20.00;17.63;;;14.20;99.90;;;;;;4946390;28;20412;-95
2023/03/29 13:43:30;;;;;;;19.30;17.35;;;14.10;99.90;;;;;;4939159;28;20499;-94
2023/03/29 13:45:56;;;;;;;19.50;16.95;;;14.10;99.90;;;;;;4938144;28;20416;-94
2023/03/29 13:48:42;;;;;;;18.20;16.33;;;14.40;99.90;;;;;;4936930;28;20415;-93
2023/03/29 13:51:39;;;;;;;18.30;16.48;;;14.20;99.90;;;;;;4940589;28;20441;-94
2023/03/29 13:54:14;;;;;;;17.48;15.48;;;14.30;99.90;;;;;;4941752;28;20507;-96
2023/03/29 13:57:02;;;;;;;16.80;14.38;;;15.00;99.90;;;;;;4937369;28;20947;-95
2023/03/29 13:59:46;;;;;;;15.77;13.48;;;14.80;99.90;;;;;;4940676;28;20442;-92
2023/03/29 14:02:31;;;;;;;14.18;12.73;;;15.10;98.90;;;;;;4952530;28;20428;-96
2023/03/29 14:05:01;;;;;;;15.97;13.10;;;15.20;96.10;;;;;;4945179;28;20448;-94
2023/03/29 14:07:32;;;;;;;15.48;13.55;;;15.30;96.70;;;;;;4935268;28;20475;-95
2023/03/29 14:09:59;;;;;;;14.70;12.70;;;15.90;97.90;;;;;;4937311;28;20768;-94
2023/03/29 14:12:32;;;;;;;14.48;12.68;;;16.20;96.30;;;;;;4942223;28;20901;-94
2023/03/29 14:15:04;;;;;;;14.50;13.00;;;16.20;93.70;;;;;;4937016;28;20503;-93
2023/03/29 14:17:32;;;;;;;13.88;12.48;;;16.20;95.40;;;;;;4939624;28;20500;-94
2023/03/29 14:20:07;;;;;;;13.13;11.70;;;16.50;93.00;;;;;;4942689;28;20436;-94
2023/03/29 14:22:48;;;;;;;13.57;11.65;;;16.10;90.60;;;;;;4946724;28;20432;-96
2023/03/29 14:25:17;;;;;;;13.40;12.00;;;16.00;91.50;;;;;;4939319;28;20422;-93
2023/03/29 14:27:43;;;;;;;13.80;11.83;;;16.20;93.10;;;;;;4938451;28;20416;-94
2023/03/29 14:30:28;;;;;;;14.47;13.00;;;16.40;94.40;;;;;;4936220;28;20443;-94
2023/03/29 14:32:55;;;;;;;14.80;12.63;;;16.30;95.50;;;;;;4945803;28;20447;-93
2023/03/29 14:35:30;;;;;;;14.38;12.73;;;16.30;94.40;;;;;;4939684;28;20847;-95
2023/03/29 14:37:56;;;;;;;14.07;12.68;;;16.10;94.70;;;;;;4938916;28;20418;-94
2023/03/29 14:40:22;;;;;;;13.82;12.45;;;16.00;94.70;;;;;;4933821;28;20434;-93
2023/03/29 14:42:49;;;;;;;14.30;12.80;;;15.60;95.90;;;;;;4936368;28;20412;-94
2023/03/29 14:45:22;;;;;;;14.32;12.82;;;15.90;94.40;;;;;;4937100;28;20417;-95
2023/03/29 14:47:49;;;;;;;15.13;13.55;;;16.50;94.00;;;;;;4959319;28;20416;-93
2023/03/29 14:50:24;;;;;;;15.15;13.38;;;15.80;93.40;;;;;;4933527;28;20436;-93
2023/03/29 14:52:50;;;;;;;14.45;12.90;;;16.00;96.40;;;;;;4940434;28;20416;-95
2023/03/29 14:55:22;;;;;;;14.60;13.10;;;16.00;94.70;;;;;;4936990;28;20924;-95
2023/03/29 14:57:53;;;;;;;13.80;12.35;;;15.30;95.20;;;;;;4938492;28;20496;-95
2023/03/29 15:00:24;;;;;;;14.90;12.93;;;15.70;95.40;;;;;;4935827;28;20448;-92